sensor_id;sensor_type;location;lat;lon;timestamp;temperature;humidity
9973;DHT22;5027;53.560;10.062;2023-04-27T00:01:35;12.50;93.70
9973;DHT22;5027;53.560;10.062;2023-04-27T00:04:02;12.60;93.80
9973;DHT22;5027;53.560;10.062;2023-04-27T00:06:33;12.60;94.00
9973;DHT22;5027;53.560;10.062;2023-04-27T00:08:59;12.60;93.60
9973;DHT22;5027;53.560;10.062;2023-04-27T00:11:26;12.60;93.90
9973;DHT22;5027;53.560;10.062;2023-04-27T00:13:53;12.60;93.90
9973;DHT22;5027;53.560;10.062;2023-04-27T00:16:19;12.60;94.10
9973;DHT22;5027;53.560;10.062;2023-04-27T00:18:46;12.60;93.90
9973;DHT22;5027;53.560;10.062;2023-04-27T00:21:13;12.50;94.00
9973;DHT22;5027;53.560;10.062;2023-04-27T00:23:40;12.50;94.20
9973;DHT22;5027;53.560;10.062;2023-04-27T00:26:06;12.50;94.30
9973;DHT22;5027;53.560;10.062;2023-04-27T00:28:33;12.50;94.40
9973;DHT22;5027;53.560;10.062;2023-04-27T00:30:59;12.50;94.10
9973;DHT22;5027;53.560;10.062;2023-04-27T00:33:28;12.40;94.20
9973;DHT22;5027;53.560;10.062;2023-04-27T00:36:01;12.40;94.30
9973;DHT22;5027;53.560;10.062;2023-04-27T00:38:28;12.30;94.30
9973;DHT22;5027;53.560;10.062;2023-04-27T00:41:04;12.30;94.60
9973;DHT22;5027;53.560;10.062;2023-04-27T00:43:32;12.50;94.40
9973;DHT22;5027;53.560;10.062;2023-04-27T00:45:59;12.40;94.10
9973;DHT22;5027;53.560;10.062;2023-04-27T00:48:26;12.30;94.30
9973;DHT22;5027;53.560;10.062;2023-04-27T00:50:53;12.30;94.40
9973;DHT22;5027;53.560;10.062;2023-04-27T00:53:20;12.30;94.30
9973;DHT22;5027;53.560;10.062;2023-04-27T00:55:48;12.30;94.50
9973;DHT22;5027;53.560;10.062;2023-04-27T00:58:14;12.30;94.30
9973;DHT22;5027;53.560;10.062;2023-04-27T01:00:41;12.30;94.40
9973;DHT22;5027;53.560;10.062;2023-04-27T01:03:08;12.40;94.30
9973;DHT22;5027;53.560;10.062;2023-04-27T01:05:36;12.30;94.30
9973;DHT22;5027;53.560;10.062;2023-04-27T01:08:03;12.30;94.30
9973;DHT22;5027;53.560;10.062;2023-04-27T01:10:30;12.30;94.30
9973;DHT22;5027;53.560;10.062;2023-04-27T01:12:57;12.30;94.30
9973;DHT22;5027;53.560;10.062;2023-04-27T01:15:24;12.30;94.50
9973;DHT22;5027;53.560;10.062;2023-04-27T01:17:57;12.40;94.20
9973;DHT22;5027;53.560;10.062;2023-04-27T01:20:24;12.30;94.20
9973;DHT22;5027;53.560;10.062;2023-04-27T01:22:52;12.30;94.50
9973;DHT22;5027;53.560;10.062;2023-04-27T01:25:19;12.30;94.20
9973;DHT22;5027;53.560;10.062;2023-04-27T01:27:45;12.30;94.20
9973;DHT22;5027;53.560;10.062;2023-04-27T01:30:12;12.30;94.30
9973;DHT22;5027;53.560;10.062;2023-04-27T01:32:39;12.40;94.30
9973;DHT22;5027;53.560;10.062;2023-04-27T01:35:06;12.30;94.30
9973;DHT22;5027;53.560;10.062;2023-04-27T01:37:33;12.20;94.60
9973;DHT22;5027;53.560;10.062;2023-04-27T01:40:00;12.20;94.30
9973;DHT22;5027;53.560;10.062;2023-04-27T01:42:27;12.20;94.40
9973;DHT22;5027;53.560;10.062;2023-04-27T01:44:54;12.20;94.40
9973;DHT22;5027;53.560;10.062;2023-04-27T01:47:21;12.20;94.50
9973;DHT22;5027;53.560;10.062;2023-04-27T01:49:47;12.20;94.40
9973;DHT22;5027;53.560;10.062;2023-04-27T01:52:14;12.20;94.50
9973;DHT22;5027;53.560;10.062;2023-04-27T01:54:41;12.20;94.80
9973;DHT22;5027;53.560;10.062;2023-04-27T01:57:08;12.10;94.60
9973;DHT22;5027;53.560;10.062;2023-04-27T01:59:35;12.10;94.60
9973;DHT22;5027;53.560;10.062;2023-04-27T02:02:02;12.10;94.90
9973;DHT22;5027;53.560;10.062;2023-04-27T02:04:29;12.10;94.80
9973;DHT22;5027;53.560;10.062;2023-04-27T02:06:56;12.00;94.70
9973;DHT22;5027;53.560;10.062;2023-04-27T02:09:23;12.00;94.80
9973;DHT22;5027;53.560;10.062;2023-04-27T02:11:50;12.00;94.60
9973;DHT22;5027;53.560;10.062;2023-04-27T02:14:16;12.10;94.60
9973;DHT22;5027;53.560;10.062;2023-04-27T02:16:45;12.10;94.80
9973;DHT22;5027;53.560;10.062;2023-04-27T02:19:12;12.20;94.80
9973;DHT22;5027;53.560;10.062;2023-04-27T02:21:39;12.20;94.80
9973;DHT22;5027;53.560;10.062;2023-04-27T02:24:06;12.40;94.40
9973;DHT22;5027;53.560;10.062;2023-04-27T02:26:33;12.50;94.60
9973;DHT22;5027;53.560;10.062;2023-04-27T02:29:02;12.50;94.30
9973;DHT22;5027;53.560;10.062;2023-04-27T02:31:29;12.70;94.10
9973;DHT22;5027;53.560;10.062;2023-04-27T02:33:56;12.50;94.00
9973;DHT22;5027;53.560;10.062;2023-04-27T02:36:24;12.30;93.90
9973;DHT22;5027;53.560;10.062;2023-04-27T02:38:54;12.20;94.30
9973;DHT22;5027;53.560;10.062;2023-04-27T02:41:21;12.30;93.90
9973;DHT22;5027;53.560;10.062;2023-04-27T02:43:49;12.20;94.20
9973;DHT22;5027;53.560;10.062;2023-04-27T02:46:16;12.10;94.30
9973;DHT22;5027;53.560;10.062;2023-04-27T02:48:43;12.10;94.20
9973;DHT22;5027;53.560;10.062;2023-04-27T02:51:10;12.10;94.20
9973;DHT22;5027;53.560;10.062;2023-04-27T02:53:36;12.10;94.30
9973;DHT22;5027;53.560;10.062;2023-04-27T02:56:03;12.00;94.40
9973;DHT22;5027;53.560;10.062;2023-04-27T02:58:30;12.00;94.30
9973;DHT22;5027;53.560;10.062;2023-04-27T03:00:57;12.00;94.40
9973;DHT22;5027;53.560;10.062;2023-04-27T03:03:23;12.00;94.50
9973;DHT22;5027;53.560;10.062;2023-04-27T03:05:50;12.00;94.40
9973;DHT22;5027;53.560;10.062;2023-04-27T03:08:17;12.00;94.50
9973;DHT22;5027;53.560;10.062;2023-04-27T03:10:44;11.90;94.40
9973;DHT22;5027;53.560;10.062;2023-04-27T03:13:10;12.00;94.60
9973;DHT22;5027;53.560;10.062;2023-04-27T03:15:37;12.00;94.70
9973;DHT22;5027;53.560;10.062;2023-04-27T03:18:04;12.00;94.50
9973;DHT22;5027;53.560;10.062;2023-04-27T03:20:32;11.90;94.60
9973;DHT22;5027;53.560;10.062;2023-04-27T03:22:59;11.90;94.60
9973;DHT22;5027;53.560;10.062;2023-04-27T03:25:26;11.90;94.80
9973;DHT22;5027;53.560;10.062;2023-04-27T03:27:53;11.90;94.70
9973;DHT22;5027;53.560;10.062;2023-04-27T03:30:21;11.90;94.50
9973;DHT22;5027;53.560;10.062;2023-04-27T03:32:48;11.90;94.60
9973;DHT22;5027;53.560;10.062;2023-04-27T03:35:15;11.90;94.40
9973;DHT22;5027;53.560;10.062;2023-04-27T03:37:44;11.90;94.40
9973;DHT22;5027;53.560;10.062;2023-04-27T03:40:12;12.00;94.50
9973;DHT22;5027;53.560;10.062;2023-04-27T03:42:40;11.90;94.40
9973;DHT22;5027;53.560;10.062;2023-04-27T03:45:07;11.90;94.40
9973;DHT22;5027;53.560;10.062;2023-04-27T03:47:34;11.80;94.60
9973;DHT22;5027;53.560;10.062;2023-04-27T03:50:01;11.80;94.50
9973;DHT22;5027;53.560;10.062;2023-04-27T03:52:27;11.80;94.60
9973;DHT22;5027;53.560;10.062;2023-04-27T03:54:54;11.80;94.60
9973;DHT22;5027;53.560;10.062;2023-04-27T03:57:20;11.90;94.60
9973;DHT22;5027;53.560;10.062;2023-04-27T03:59:48;11.80;94.70
9973;DHT22;5027;53.560;10.062;2023-04-27T04:02:15;11.80;94.70
9973;DHT22;5027;53.560;10.062;2023-04-27T04:04:42;11.80;94.90
9973;DHT22;5027;53.560;10.062;2023-04-27T04:07:11;11.70;94.80
9973;DHT22;5027;53.560;10.062;2023-04-27T04:09:38;11.70;94.70
9973;DHT22;5027;53.560;10.062;2023-04-27T04:12:05;11.80;94.80
9973;DHT22;5027;53.560;10.062;2023-04-27T04:14:32;11.80;94.70
9973;DHT22;5027;53.560;10.062;2023-04-27T04:16:59;11.70;94.70
9973;DHT22;5027;53.560;10.062;2023-04-27T04:19:26;11.70;94.60
9973;DHT22;5027;53.560;10.062;2023-04-27T04:21:52;11.70;94.80
9973;DHT22;5027;53.560;10.062;2023-04-27T04:24:20;11.70;94.80
9973;DHT22;5027;53.560;10.062;2023-04-27T04:26:47;11.70;94.70
9973;DHT22;5027;53.560;10.062;2023-04-27T04:29:14;11.70;94.80
9973;DHT22;5027;53.560;10.062;2023-04-27T04:31:41;11.60;94.80
9973;DHT22;5027;53.560;10.062;2023-04-27T04:34:08;11.60;94.90
9973;DHT22;5027;53.560;10.062;2023-04-27T04:36:35;11.70;94.80
9973;DHT22;5027;53.560;10.062;2023-04-27T04:39:02;11.70;94.90
9973;DHT22;5027;53.560;10.062;2023-04-27T04:41:30;11.70;95.00
9973;DHT22;5027;53.560;10.062;2023-04-27T04:43:58;11.70;94.80
9973;DHT22;5027;53.560;10.062;2023-04-27T04:46:25;11.70;94.90
9973;DHT22;5027;53.560;10.062;2023-04-27T04:48:51;11.70;95.00
9973;DHT22;5027;53.560;10.062;2023-04-27T04:51:20;11.70;94.90
9973;DHT22;5027;53.560;10.062;2023-04-27T04:53:47;11.80;95.20
9973;DHT22;5027;53.560;10.062;2023-04-27T04:56:14;11.80;95.20
9973;DHT22;5027;53.560;10.062;2023-04-27T04:58:42;11.80;95.20
9973;DHT22;5027;53.560;10.062;2023-04-27T05:01:09;11.80;95.00
9973;DHT22;5027;53.560;10.062;2023-04-27T05:03:35;11.80;95.10
9973;DHT22;5027;53.560;10.062;2023-04-27T05:06:02;11.80;95.20
9973;DHT22;5027;53.560;10.062;2023-04-27T05:08:29;11.90;95.00
9973;DHT22;5027;53.560;10.062;2023-04-27T05:10:56;11.80;95.20
9973;DHT22;5027;53.560;10.062;2023-04-27T05:13:23;11.80;95.30
9973;DHT22;5027;53.560;10.062;2023-04-27T05:15:53;11.70;95.00
9973;DHT22;5027;53.560;10.062;2023-04-27T05:18:20;11.80;95.10
9973;DHT22;5027;53.560;10.062;2023-04-27T05:20:46;11.80;95.20
9973;DHT22;5027;53.560;10.062;2023-04-27T05:23:13;11.70;95.20
9973;DHT22;5027;53.560;10.062;2023-04-27T05:25:39;11.80;95.20
9973;DHT22;5027;53.560;10.062;2023-04-27T05:28:09;11.70;95.10
9973;DHT22;5027;53.560;10.062;2023-04-27T05:30:36;11.70;95.20
9973;DHT22;5027;53.560;10.062;2023-04-27T05:33:03;11.60;95.10
9973;DHT22;5027;53.560;10.062;2023-04-27T05:35:34;11.70;95.30
9973;DHT22;5027;53.560;10.062;2023-04-27T05:38:03;11.70;95.20
9973;DHT22;5027;53.560;10.062;2023-04-27T05:40:30;11.70;95.20
9973;DHT22;5027;53.560;10.062;2023-04-27T05:42:56;11.70;95.10
9973;DHT22;5027;53.560;10.062;2023-04-27T05:45:26;11.70;95.20
9973;DHT22;5027;53.560;10.062;2023-04-27T05:47:53;11.60;95.40
9973;DHT22;5027;53.560;10.062;2023-04-27T05:50:19;11.60;95.40
9973;DHT22;5027;53.560;10.062;2023-04-27T05:52:46;11.50;95.50
9973;DHT22;5027;53.560;10.062;2023-04-27T05:55:13;11.50;95.60
9973;DHT22;5027;53.560;10.062;2023-04-27T05:57:39;11.70;95.20
9973;DHT22;5027;53.560;10.062;2023-04-27T06:00:07;11.70;95.30
9973;DHT22;5027;53.560;10.062;2023-04-27T06:02:38;11.70;95.20
9973;DHT22;5027;53.560;10.062;2023-04-27T06:05:06;11.60;95.30
9973;DHT22;5027;53.560;10.062;2023-04-27T06:07:32;11.50;95.40
9973;DHT22;5027;53.560;10.062;2023-04-27T06:09:59;11.60;95.40
9973;DHT22;5027;53.560;10.062;2023-04-27T06:12:26;11.70;95.30
9973;DHT22;5027;53.560;10.062;2023-04-27T06:14:52;11.70;95.10
9973;DHT22;5027;53.560;10.062;2023-04-27T06:17:20;11.80;94.90
9973;DHT22;5027;53.560;10.062;2023-04-27T06:19:47;11.90;95.20
9973;DHT22;5027;53.560;10.062;2023-04-27T06:22:13;11.80;95.20
9973;DHT22;5027;53.560;10.062;2023-04-27T06:24:40;11.90;95.20
9973;DHT22;5027;53.560;10.062;2023-04-27T06:27:07;11.60;95.10
9973;DHT22;5027;53.560;10.062;2023-04-27T06:29:34;11.60;95.00
9973;DHT22;5027;53.560;10.062;2023-04-27T06:32:01;11.80;94.80
9973;DHT22;5027;53.560;10.062;2023-04-27T06:34:32;11.90;95.10
9973;DHT22;5027;53.560;10.062;2023-04-27T06:36:59;11.70;95.00
9973;DHT22;5027;53.560;10.062;2023-04-27T06:39:26;11.70;95.20
9973;DHT22;5027;53.560;10.062;2023-04-27T06:41:52;11.70;95.20
9973;DHT22;5027;53.560;10.062;2023-04-27T06:44:19;11.80;95.40
9973;DHT22;5027;53.560;10.062;2023-04-27T06:46:45;12.00;95.10
9973;DHT22;5027;53.560;10.062;2023-04-27T06:49:12;12.30;97.30
9973;DHT22;5027;53.560;10.062;2023-04-27T06:51:39;12.40;94.60
9973;DHT22;5027;53.560;10.062;2023-04-27T06:54:06;12.30;95.10
9973;DHT22;5027;53.560;10.062;2023-04-27T06:56:33;12.10;94.90
9973;DHT22;5027;53.560;10.062;2023-04-27T06:59:00;12.20;95.10
9973;DHT22;5027;53.560;10.062;2023-04-27T07:01:27;12.20;95.40
9973;DHT22;5027;53.560;10.062;2023-04-27T07:03:53;12.20;95.10
9973;DHT22;5027;53.560;10.062;2023-04-27T07:06:21;12.30;95.10
9973;DHT22;5027;53.560;10.062;2023-04-27T07:08:47;12.30;94.50
9973;DHT22;5027;53.560;10.062;2023-04-27T07:11:14;12.20;94.80
9973;DHT22;5027;53.560;10.062;2023-04-27T07:13:42;12.20;94.60
9973;DHT22;5027;53.560;10.062;2023-04-27T07:16:08;12.30;94.90
9973;DHT22;5027;53.560;10.062;2023-04-27T07:18:35;12.40;94.60
9973;DHT22;5027;53.560;10.062;2023-04-27T07:21:02;12.40;94.40
9973;DHT22;5027;53.560;10.062;2023-04-27T07:23:29;12.30;94.70
9973;DHT22;5027;53.560;10.062;2023-04-27T07:25:56;12.40;94.80
9973;DHT22;5027;53.560;10.062;2023-04-27T07:28:23;12.60;95.20
9973;DHT22;5027;53.560;10.062;2023-04-27T07:30:50;12.60;94.80
9973;DHT22;5027;53.560;10.062;2023-04-27T07:33:17;12.60;94.90
9973;DHT22;5027;53.560;10.062;2023-04-27T07:35:45;12.40;95.50
9973;DHT22;5027;53.560;10.062;2023-04-27T07:38:12;12.20;95.00
9973;DHT22;5027;53.560;10.062;2023-04-27T07:40:39;12.40;94.90
9973;DHT22;5027;53.560;10.062;2023-04-27T07:43:07;12.40;94.60
9973;DHT22;5027;53.560;10.062;2023-04-27T07:45:34;12.40;94.70
9973;DHT22;5027;53.560;10.062;2023-04-27T07:48:02;12.70;95.90
9973;DHT22;5027;53.560;10.062;2023-04-27T07:50:30;13.00;95.50
9973;DHT22;5027;53.560;10.062;2023-04-27T07:52:57;12.60;93.70
9973;DHT22;5027;53.560;10.062;2023-04-27T07:55:24;12.40;93.70
9973;DHT22;5027;53.560;10.062;2023-04-27T07:57:52;12.40;93.80
9973;DHT22;5027;53.560;10.062;2023-04-27T08:00:19;12.40;93.70
9973;DHT22;5027;53.560;10.062;2023-04-27T08:02:46;12.60;93.50
9973;DHT22;5027;53.560;10.062;2023-04-27T08:05:13;12.60;93.80
9973;DHT22;5027;53.560;10.062;2023-04-27T08:07:40;12.60;94.00
9973;DHT22;5027;53.560;10.062;2023-04-27T08:10:11;12.60;93.50
9973;DHT22;5027;53.560;10.062;2023-04-27T08:12:38;13.00;98.00
9973;DHT22;5027;53.560;10.062;2023-04-27T08:15:05;13.60;97.00
9973;DHT22;5027;53.560;10.062;2023-04-27T08:17:33;13.70;95.00
9973;DHT22;5027;53.560;10.062;2023-04-27T08:20:00;13.60;92.90
9973;DHT22;5027;53.560;10.062;2023-04-27T08:22:27;13.30;92.90
9973;DHT22;5027;53.560;10.062;2023-04-27T08:24:53;13.20;93.00
9973;DHT22;5027;53.560;10.062;2023-04-27T08:27:20;13.20;93.00
9973;DHT22;5027;53.560;10.062;2023-04-27T08:29:47;13.20;92.70
9973;DHT22;5027;53.560;10.062;2023-04-27T08:32:14;13.10;93.20
9973;DHT22;5027;53.560;10.062;2023-04-27T08:34:41;13.10;93.20
9973;DHT22;5027;53.560;10.062;2023-04-27T08:37:10;13.10;93.20
9973;DHT22;5027;53.560;10.062;2023-04-27T08:39:37;13.00;92.90
9973;DHT22;5027;53.560;10.062;2023-04-27T08:42:10;12.90;93.10
9973;DHT22;5027;53.560;10.062;2023-04-27T08:44:38;12.70;92.60
9973;DHT22;5027;53.560;10.062;2023-04-27T08:47:06;12.70;92.70
9973;DHT22;5027;53.560;10.062;2023-04-27T08:49:33;12.90;93.40
9973;DHT22;5027;53.560;10.062;2023-04-27T08:52:00;13.00;92.80
9973;DHT22;5027;53.560;10.062;2023-04-27T08:54:27;13.20;97.80
9973;DHT22;5027;53.560;10.062;2023-04-27T08:56:54;13.80;95.00
9973;DHT22;5027;53.560;10.062;2023-04-27T08:59:20;13.90;97.20
9973;DHT22;5027;53.560;10.062;2023-04-27T09:01:48;13.90;92.80
9973;DHT22;5027;53.560;10.062;2023-04-27T09:04:15;14.20;99.70
9973;DHT22;5027;53.560;10.062;2023-04-27T09:06:43;14.30;94.20
9973;DHT22;5027;53.560;10.062;2023-04-27T09:09:21;13.90;91.90
9973;DHT22;5027;53.560;10.062;2023-04-27T09:11:48;13.50;91.20
9973;DHT22;5027;53.560;10.062;2023-04-27T09:14:18;13.30;90.90
9973;DHT22;5027;53.560;10.062;2023-04-27T09:16:54;13.30;90.90
9973;DHT22;5027;53.560;10.062;2023-04-27T09:19:28;13.40;90.30
9973;DHT22;5027;53.560;10.062;2023-04-27T09:22:05;13.40;89.90
9973;DHT22;5027;53.560;10.062;2023-04-27T09:24:32;13.40;87.10
9973;DHT22;5027;53.560;10.062;2023-04-27T09:26:59;13.40;87.30
9973;DHT22;5027;53.560;10.062;2023-04-27T09:29:37;13.50;85.90
9973;DHT22;5027;53.560;10.062;2023-04-27T09:32:14;13.60;87.30
9973;DHT22;5027;53.560;10.062;2023-04-27T09:34:43;13.60;87.50
9973;DHT22;5027;53.560;10.062;2023-04-27T09:37:10;13.60;86.60
9973;DHT22;5027;53.560;10.062;2023-04-27T09:39:37;13.70;91.90
9973;DHT22;5027;53.560;10.062;2023-04-27T09:42:04;13.70;89.20
9973;DHT22;5027;53.560;10.062;2023-04-27T09:44:31;13.70;89.40
9973;DHT22;5027;53.560;10.062;2023-04-27T09:46:59;13.70;89.90
9973;DHT22;5027;53.560;10.062;2023-04-27T09:49:27;13.70;89.80
9973;DHT22;5027;53.560;10.062;2023-04-27T09:51:56;13.50;89.60
9973;DHT22;5027;53.560;10.062;2023-04-27T09:54:26;13.40;90.10
9973;DHT22;5027;53.560;10.062;2023-04-27T09:57:16;13.60;90.00
9973;DHT22;5027;53.560;10.062;2023-04-27T10:00:05;13.80;89.60
9973;DHT22;5027;53.560;10.062;2023-04-27T10:02:48;13.90;90.70
9973;DHT22;5027;53.560;10.062;2023-04-27T10:08:43;13.80;88.60
9973;DHT22;5027;53.560;10.062;2023-04-27T10:11:15;13.80;85.10
9973;DHT22;5027;53.560;10.062;2023-04-27T10:13:53;13.80;85.70
9973;DHT22;5027;53.560;10.062;2023-04-27T10:16:21;13.90;85.90
9973;DHT22;5027;53.560;10.062;2023-04-27T10:18:53;13.90;85.70
9973;DHT22;5027;53.560;10.062;2023-04-27T10:21:21;14.00;93.70
9973;DHT22;5027;53.560;10.062;2023-04-27T10:23:51;14.00;88.70
9973;DHT22;5027;53.560;10.062;2023-04-27T10:26:25;14.00;87.80
9973;DHT22;5027;53.560;10.062;2023-04-27T10:29:06;13.90;87.00
9973;DHT22;5027;53.560;10.062;2023-04-27T10:31:34;14.00;88.70
9973;DHT22;5027;53.560;10.062;2023-04-27T10:34:08;14.30;89.60
9973;DHT22;5027;53.560;10.062;2023-04-27T10:36:38;14.40;86.10
9973;DHT22;5027;53.560;10.062;2023-04-27T10:39:20;14.40;87.20
9973;DHT22;5027;53.560;10.062;2023-04-27T10:42:09;14.50;85.80
9973;DHT22;5027;53.560;10.062;2023-04-27T10:44:38;14.40;85.50
9973;DHT22;5027;53.560;10.062;2023-04-27T10:47:15;14.30;87.00
9973;DHT22;5027;53.560;10.062;2023-04-27T10:49:42;14.20;85.00
9973;DHT22;5027;53.560;10.062;2023-04-27T10:52:09;14.10;84.00
9973;DHT22;5027;53.560;10.062;2023-04-27T10:54:36;14.00;85.00
9973;DHT22;5027;53.560;10.062;2023-04-27T10:57:09;14.20;86.70
9973;DHT22;5027;53.560;10.062;2023-04-27T10:59:51;14.10;84.20
9973;DHT22;5027;53.560;10.062;2023-04-27T11:02:26;14.20;85.20
9973;DHT22;5027;53.560;10.062;2023-04-27T11:04:54;14.20;84.50
9973;DHT22;5027;53.560;10.062;2023-04-27T11:07:26;14.30;85.00
9973;DHT22;5027;53.560;10.062;2023-04-27T11:09:54;14.20;84.00
9973;DHT22;5027;53.560;10.062;2023-04-27T11:12:21;14.20;85.60
9973;DHT22;5027;53.560;10.062;2023-04-27T11:14:48;14.10;85.70
9973;DHT22;5027;53.560;10.062;2023-04-27T11:17:14;14.10;86.20
9973;DHT22;5027;53.560;10.062;2023-04-27T11:19:47;14.30;87.00
9973;DHT22;5027;53.560;10.062;2023-04-27T11:22:14;14.20;87.10
9973;DHT22;5027;53.560;10.062;2023-04-27T11:24:48;14.10;84.40
9973;DHT22;5027;53.560;10.062;2023-04-27T11:27:18;14.10;86.00
9973;DHT22;5027;53.560;10.062;2023-04-27T11:29:45;14.10;87.20
9973;DHT22;5027;53.560;10.062;2023-04-27T11:32:22;14.40;93.50
9973;DHT22;5027;53.560;10.062;2023-04-27T11:34:50;14.30;88.80
9973;DHT22;5027;53.560;10.062;2023-04-27T11:37:24;14.20;89.20
9973;DHT22;5027;53.560;10.062;2023-04-27T11:39:52;14.30;88.90
9973;DHT22;5027;53.560;10.062;2023-04-27T11:42:23;14.70;93.30
9973;DHT22;5027;53.560;10.062;2023-04-27T11:44:58;14.80;92.30
9973;DHT22;5027;53.560;10.062;2023-04-27T11:47:28;14.90;92.20
9973;DHT22;5027;53.560;10.062;2023-04-27T11:49:56;14.90;92.90
9973;DHT22;5027;53.560;10.062;2023-04-27T11:52:34;15.20;96.90
9973;DHT22;5027;53.560;10.062;2023-04-27T11:55:02;15.40;95.30
9973;DHT22;5027;53.560;10.062;2023-04-27T11:57:32;15.40;97.80
9973;DHT22;5027;53.560;10.062;2023-04-27T12:00:01;15.60;95.20
9973;DHT22;5027;53.560;10.062;2023-04-27T12:02:39;15.40;96.60
9973;DHT22;5027;53.560;10.062;2023-04-27T12:05:07;15.70;96.40
9973;DHT22;5027;53.560;10.062;2023-04-27T12:07:35;15.30;90.80
9973;DHT22;5027;53.560;10.062;2023-04-27T12:10:01;15.20;91.70
9973;DHT22;5027;53.560;10.062;2023-04-27T12:12:28;15.10;90.70
9973;DHT22;5027;53.560;10.062;2023-04-27T12:14:55;15.00;92.50
9973;DHT22;5027;53.560;10.062;2023-04-27T12:17:23;15.10;92.60
9973;DHT22;5027;53.560;10.062;2023-04-27T12:19:49;15.10;90.70
9973;DHT22;5027;53.560;10.062;2023-04-27T12:22:16;15.10;90.60
9973;DHT22;5027;53.560;10.062;2023-04-27T12:24:43;15.10;94.60
9973;DHT22;5027;53.560;10.062;2023-04-27T12:27:10;15.00;91.20
9973;DHT22;5027;53.560;10.062;2023-04-27T12:29:37;15.20;94.80
9973;DHT22;5027;53.560;10.062;2023-04-27T12:32:04;15.40;95.00
9973;DHT22;5027;53.560;10.062;2023-04-27T12:34:31;15.10;90.00
9973;DHT22;5027;53.560;10.062;2023-04-27T12:36:58;14.90;90.00
9973;DHT22;5027;53.560;10.062;2023-04-27T12:39:25;14.80;89.40
9973;DHT22;5027;53.560;10.062;2023-04-27T12:41:52;15.00;94.30
9973;DHT22;5027;53.560;10.062;2023-04-27T12:44:20;14.80;89.40
9973;DHT22;5027;53.560;10.062;2023-04-27T12:46:47;14.60;90.40
9973;DHT22;5027;53.560;10.062;2023-04-27T12:49:14;14.80;92.80
9973;DHT22;5027;53.560;10.062;2023-04-27T12:51:41;15.10;96.20
9973;DHT22;5027;53.560;10.062;2023-04-27T12:54:09;14.90;89.40
9973;DHT22;5027;53.560;10.062;2023-04-27T12:56:36;14.80;88.70
9973;DHT22;5027;53.560;10.062;2023-04-27T12:59:03;14.70;88.50
9973;DHT22;5027;53.560;10.062;2023-04-27T13:01:31;14.70;92.30
9973;DHT22;5027;53.560;10.062;2023-04-27T13:04:00;15.10;94.50
9973;DHT22;5027;53.560;10.062;2023-04-27T13:06:29;15.20;91.20
9973;DHT22;5027;53.560;10.062;2023-04-27T13:08:57;15.00;90.00
9973;DHT22;5027;53.560;10.062;2023-04-27T13:11:25;15.10;92.90
9973;DHT22;5027;53.560;10.062;2023-04-27T13:13:52;15.10;90.10
9973;DHT22;5027;53.560;10.062;2023-04-27T13:16:20;14.80;88.00
9973;DHT22;5027;53.560;10.062;2023-04-27T13:18:48;14.70;90.00
9973;DHT22;5027;53.560;10.062;2023-04-27T13:21:17;14.70;89.80
9973;DHT22;5027;53.560;10.062;2023-04-27T13:23:44;14.70;89.70
9973;DHT22;5027;53.560;10.062;2023-04-27T13:26:11;14.70;89.60
9973;DHT22;5027;53.560;10.062;2023-04-27T13:28:39;14.70;89.20
9973;DHT22;5027;53.560;10.062;2023-04-27T13:31:06;14.60;89.40
9973;DHT22;5027;53.560;10.062;2023-04-27T13:33:38;14.60;90.80
9973;DHT22;5027;53.560;10.062;2023-04-27T13:36:05;14.90;93.00
9973;DHT22;5027;53.560;10.062;2023-04-27T13:38:32;15.00;91.20
9973;DHT22;5027;53.560;10.062;2023-04-27T13:40:59;15.00;93.20
9973;DHT22;5027;53.560;10.062;2023-04-27T13:43:26;15.00;93.90
9973;DHT22;5027;53.560;10.062;2023-04-27T13:45:52;15.10;92.50
9973;DHT22;5027;53.560;10.062;2023-04-27T13:48:21;14.90;92.40
9973;DHT22;5027;53.560;10.062;2023-04-27T13:50:48;14.80;92.00
9973;DHT22;5027;53.560;10.062;2023-04-27T13:53:15;14.80;91.80
9973;DHT22;5027;53.560;10.062;2023-04-27T13:55:42;14.60;91.40
9973;DHT22;5027;53.560;10.062;2023-04-27T13:58:09;14.60;92.10
9973;DHT22;5027;53.560;10.062;2023-04-27T14:00:37;14.50;91.80
9973;DHT22;5027;53.560;10.062;2023-04-27T14:03:03;14.50;91.70
9973;DHT22;5027;53.560;10.062;2023-04-27T14:05:30;14.50;92.20
9973;DHT22;5027;53.560;10.062;2023-04-27T14:07:57;14.60;91.70
9973;DHT22;5027;53.560;10.062;2023-04-27T14:10:25;14.70;91.80
9973;DHT22;5027;53.560;10.062;2023-04-27T14:12:51;14.80;91.80
9973;DHT22;5027;53.560;10.062;2023-04-27T14:15:18;14.80;91.70
9973;DHT22;5027;53.560;10.062;2023-04-27T14:17:45;14.80;91.40
9973;DHT22;5027;53.560;10.062;2023-04-27T14:20:12;14.90;91.90
9973;DHT22;5027;53.560;10.062;2023-04-27T14:22:38;14.90;91.90
9973;DHT22;5027;53.560;10.062;2023-04-27T14:25:05;14.90;91.10
9973;DHT22;5027;53.560;10.062;2023-04-27T14:27:32;14.80;90.40
9973;DHT22;5027;53.560;10.062;2023-04-27T14:29:59;14.70;90.30
9973;DHT22;5027;53.560;10.062;2023-04-27T14:32:26;14.70;90.50
9973;DHT22;5027;53.560;10.062;2023-04-27T14:34:53;14.80;90.60
9973;DHT22;5027;53.560;10.062;2023-04-27T14:37:19;14.90;90.80
9973;DHT22;5027;53.560;10.062;2023-04-27T14:39:46;14.90;90.40
9973;DHT22;5027;53.560;10.062;2023-04-27T14:42:12;14.90;89.90
9973;DHT22;5027;53.560;10.062;2023-04-27T14:44:39;14.80;90.00
9973;DHT22;5027;53.560;10.062;2023-04-27T14:47:06;14.80;88.80
9973;DHT22;5027;53.560;10.062;2023-04-27T14:49:33;14.80;88.70
9973;DHT22;5027;53.560;10.062;2023-04-27T14:51:59;14.90;89.40
9973;DHT22;5027;53.560;10.062;2023-04-27T14:54:29;14.80;87.90
9973;DHT22;5027;53.560;10.062;2023-04-27T14:56:56;14.80;87.90
9973;DHT22;5027;53.560;10.062;2023-04-27T14:59:24;14.80;92.20
9973;DHT22;5027;53.560;10.062;2023-04-27T15:01:51;14.90;89.40
9973;DHT22;5027;53.560;10.062;2023-04-27T15:04:18;14.90;87.90
9973;DHT22;5027;53.560;10.062;2023-04-27T15:06:45;14.70;86.80
9973;DHT22;5027;53.560;10.062;2023-04-27T15:09:12;14.80;89.40
9973;DHT22;5027;53.560;10.062;2023-04-27T15:11:39;14.90;90.90
9973;DHT22;5027;53.560;10.062;2023-04-27T15:14:07;14.80;87.80
9973;DHT22;5027;53.560;10.062;2023-04-27T15:16:34;14.70;87.60
9973;DHT22;5027;53.560;10.062;2023-04-27T15:19:01;14.70;88.00
9973;DHT22;5027;53.560;10.062;2023-04-27T15:21:29;14.70;87.50
9973;DHT22;5027;53.560;10.062;2023-04-27T15:23:56;14.80;88.70
9973;DHT22;5027;53.560;10.062;2023-04-27T15:26:24;14.70;88.00
9973;DHT22;5027;53.560;10.062;2023-04-27T15:28:50;14.70;87.80
9973;DHT22;5027;53.560;10.062;2023-04-27T15:31:17;14.70;88.60
9973;DHT22;5027;53.560;10.062;2023-04-27T15:33:44;14.70;90.00
9973;DHT22;5027;53.560;10.062;2023-04-27T15:36:11;14.80;91.00
9973;DHT22;5027;53.560;10.062;2023-04-27T15:38:38;14.80;90.00
9973;DHT22;5027;53.560;10.062;2023-04-27T15:41:05;14.90;90.30
9973;DHT22;5027;53.560;10.062;2023-04-27T15:43:31;14.90;90.60
9973;DHT22;5027;53.560;10.062;2023-04-27T15:45:58;14.80;89.70
9973;DHT22;5027;53.560;10.062;2023-04-27T15:48:28;14.80;90.20
9973;DHT22;5027;53.560;10.062;2023-04-27T15:50:55;14.70;90.30
9973;DHT22;5027;53.560;10.062;2023-04-27T15:53:21;14.70;91.10